sensor_id;sensor_type;location;lat;lon;timestamp;pressure;altitude;pressure_sealevel;temperature;humidity
23473;BME280;11909;52.516;13.564;2023-03-03T00:00:53;101707.06;;;-0.27;100.00
23473;BME280;11909;52.516;13.564;2023-03-03T00:03:22;101706.16;;;-0.20;100.00
23473;BME280;11909;52.516;13.564;2023-03-03T00:05:51;101706.91;;;-0.11;100.00
23473;BME280;11909;52.516;13.564;2023-03-03T00:08:20;101719.81;;;-0.21;100.00
23473;BME280;11909;52.516;13.564;2023-03-03T00:10:49;101715.94;;;-0.19;100.00
23473;BME280;11909;52.516;13.564;2023-03-03T00:13:19;101718.16;;;-0.22;100.00
23473;BME280;11909;52.516;13.564;2023-03-03T00:15:49;101712.91;;;-0.24;100.00
23473;BME280;11909;52.516;13.564;2023-03-03T00:18:21;101706.41;;;-0.30;99.57
23473;BME280;11909;52.516;13.564;2023-03-03T00:20:54;101709.28;;;-0.31;99.88
23473;BME280;11909;52.516;13.564;2023-03-03T00:23:27;101702.34;;;-0.25;100.00
23473;BME280;11909;52.516;13.564;2023-03-03T00:25:57;101697.09;;;-0.27;100.00
23473;BME280;11909;52.516;13.564;2023-03-03T00:28:28;101693.97;;;-0.31;99.88
23473;BME280;11909;52.516;13.564;2023-03-03T00:30:59;101677.47;;;-0.36;100.00
23473;BME280;11909;52.516;13.564;2023-03-03T00:33:30;101693.31;;;-0.33;99.93
23473;BME280;11909;52.516;13.564;2023-03-03T00:36:19;101682.78;;;-0.42;100.00
23473;BME280;11909;52.516;13.564;2023-03-03T00:38:48;101683.81;;;-0.44;100.00
23473;BME280;11909;52.516;13.564;2023-03-03T00:41:19;101694.94;;;-0.47;100.00
23473;BME280;11909;52.516;13.564;2023-03-03T00:43:49;101689.84;;;-0.41;100.00
23473;BME280;11909;52.516;13.564;2023-03-03T00:46:20;101677.06;;;-0.48;100.00
23473;BME280;11909;52.516;13.564;2023-03-03T00:48:49;101678.59;;;-0.45;100.00
23473;BME280;11909;52.516;13.564;2023-03-03T00:51:25;101666.59;;;-0.42;100.00
23473;BME280;11909;52.516;13.564;2023-03-03T00:53:53;101667.91;;;-0.38;100.00
23473;BME280;11909;52.516;13.564;2023-03-03T00:56:21;101668.72;;;-0.38;100.00
23473;BME280;11909;52.516;13.564;2023-03-03T00:58:49;101664.94;;;-0.44;100.00
23473;BME280;11909;52.516;13.564;2023-03-03T01:01:19;101662.97;;;-0.35;100.00
23473;BME280;11909;52.516;13.564;2023-03-03T01:03:47;101664.19;;;-0.37;100.00
23473;BME280;11909;52.516;13.564;2023-03-03T01:06:14;101659.06;;;-0.32;100.00
23473;BME280;11909;52.516;13.564;2023-03-03T01:08:42;101653.78;;;-0.25;100.00
23473;BME280;11909;52.516;13.564;2023-03-03T01:11:12;101657.66;;;-0.28;100.00
23473;BME280;11909;52.516;13.564;2023-03-03T01:13:43;101663.31;;;-0.38;100.00
23473;BME280;11909;52.516;13.564;2023-03-03T01:16:13;101659.59;;;-0.37;100.00
23473;BME280;11909;52.516;13.564;2023-03-03T01:18:42;101661.38;;;-0.29;100.00
23473;BME280;11909;52.516;13.564;2023-03-03T01:21:11;101652.28;;;-0.28;100.00
23473;BME280;11909;52.516;13.564;2023-03-03T01:23:39;101650.41;;;-0.27;100.00
23473;BME280;11909;52.516;13.564;2023-03-03T01:26:06;101651.91;;;-0.25;100.00
23473;BME280;11909;52.516;13.564;2023-03-03T01:28:34;101648.09;;;-0.31;100.00
23473;BME280;11909;52.516;13.564;2023-03-03T01:31:03;101642.72;;;-0.31;100.00
23473;BME280;11909;52.516;13.564;2023-03-03T01:33:31;101630.59;;;-0.35;100.00
23473;BME280;11909;52.516;13.564;2023-03-03T01:36:01;101632.94;;;-0.32;100.00
23473;BME280;11909;52.516;13.564;2023-03-03T01:38:29;101625.03;;;-0.33;100.00
23473;BME280;11909;52.516;13.564;2023-03-03T01:40:58;101626.53;;;-0.31;100.00
23473;BME280;11909;52.516;13.564;2023-03-03T01:43:27;101621.56;;;-0.27;100.00
23473;BME280;11909;52.516;13.564;2023-03-03T01:46:21;101628.00;;;-0.28;100.00
23473;BME280;11909;52.516;13.564;2023-03-03T01:48:55;101626.31;;;-0.29;100.00
23473;BME280;11909;52.516;13.564;2023-03-03T01:51:31;101621.94;;;-0.30;100.00
23473;BME280;11909;52.516;13.564;2023-03-03T01:54:03;101623.34;;;-0.34;100.00
23473;BME280;11909;52.516;13.564;2023-03-03T01:56:31;101618.59;;;-0.47;100.00
23473;BME280;11909;52.516;13.564;2023-03-03T01:59:01;101624.66;;;-0.45;100.00
23473;BME280;11909;52.516;13.564;2023-03-03T02:01:31;101624.47;;;-0.44;100.00
23473;BME280;11909;52.516;13.564;2023-03-03T02:04:00;101614.88;;;-0.46;100.00
23473;BME280;11909;52.516;13.564;2023-03-03T02:06:32;101616.19;;;-0.42;100.00
23473;BME280;11909;52.516;13.564;2023-03-03T02:09:04;101623.44;;;-0.42;100.00
23473;BME280;11909;52.516;13.564;2023-03-03T02:11:35;101629.66;;;-0.42;100.00
23473;BME280;11909;52.516;13.564;2023-03-03T02:14:04;101624.75;;;-0.38;100.00
23473;BME280;11909;52.516;13.564;2023-03-03T02:16:31;101623.44;;;-0.27;100.00
23473;BME280;11909;52.516;13.564;2023-03-03T02:18:59;101626.78;;;-0.25;100.00
23473;BME280;11909;52.516;13.564;2023-03-03T02:21:27;101623.81;;;-0.16;100.00
23473;BME280;11909;52.516;13.564;2023-03-03T02:24:00;101632.06;;;-0.17;100.00
23473;BME280;11909;52.516;13.564;2023-03-03T02:26:33;101627.53;;;-0.17;100.00
23473;BME280;11909;52.516;13.564;2023-03-03T02:29:03;101629.59;;;-0.19;100.00
23473;BME280;11909;52.516;13.564;2023-03-03T02:31:31;101636.94;;;-0.27;100.00
23473;BME280;11909;52.516;13.564;2023-03-03T02:33:59;101632.19;;;-0.25;100.00
23473;BME280;11909;52.516;13.564;2023-03-03T02:36:28;101628.28;;;-0.23;100.00
23473;BME280;11909;52.516;13.564;2023-03-03T02:39:02;101629.66;;;-0.27;100.00
23473;BME280;11909;52.516;13.564;2023-03-03T02:41:35;101628.63;;;-0.26;100.00
23473;BME280;11909;52.516;13.564;2023-03-03T02:44:07;101627.63;;;-0.25;100.00
23473;BME280;11909;52.516;13.564;2023-03-03T02:46:37;101632.47;;;-0.20;100.00
23473;BME280;11909;52.516;13.564;2023-03-03T02:49:06;101633.31;;;-0.20;100.00
23473;BME280;11909;52.516;13.564;2023-03-03T02:51:35;101622.78;;;-0.15;100.00
23473;BME280;11909;52.516;13.564;2023-03-03T02:54:03;101630.31;;;-0.10;100.00
23473;BME280;11909;52.516;13.564;2023-03-03T02:56:33;101623.25;;;-0.11;100.00
23473;BME280;11909;52.516;13.564;2023-03-03T02:59:01;101624.06;;;-0.10;100.00
23473;BME280;11909;52.516;13.564;2023-03-03T03:01:29;101631.69;;;-0.14;100.00
23473;BME280;11909;52.516;13.564;2023-03-03T03:04:04;101636.28;;;-0.15;100.00
23473;BME280;11909;52.516;13.564;2023-03-03T03:06:34;101630.69;;;-0.13;100.00
23473;BME280;11909;52.516;13.564;2023-03-03T03:09:03;101634.69;;;-0.09;100.00
23473;BME280;11909;52.516;13.564;2023-03-03T03:11:30;101639.72;;;-0.21;100.00
23473;BME280;11909;52.516;13.564;2023-03-03T03:13:59;101639.81;;;-0.29;100.00
23473;BME280;11909;52.516;13.564;2023-03-03T03:16:27;101644.00;;;-0.26;100.00
23473;BME280;11909;52.516;13.564;2023-03-03T03:18:55;101650.41;;;-0.27;100.00
23473;BME280;11909;52.516;13.564;2023-03-03T03:21:23;101654.78;;;-0.26;100.00
23473;BME280;11909;52.516;13.564;2023-03-03T03:23:50;101655.53;;;-0.18;100.00
23473;BME280;11909;52.516;13.564;2023-03-03T03:26:18;101655.72;;;-0.19;100.00
23473;BME280;11909;52.516;13.564;2023-03-03T03:28:46;101661.22;;;-0.12;100.00
23473;BME280;11909;52.516;13.564;2023-03-03T03:31:16;101657.66;;;-0.13;100.00
23473;BME280;11909;52.516;13.564;2023-03-03T03:33:44;101659.34;;;-0.12;100.00
23473;BME280;11909;52.516;13.564;2023-03-03T03:36:12;101657.31;;;-0.10;100.00
23473;BME280;11909;52.516;13.564;2023-03-03T03:38:40;101665.03;;;-0.07;100.00
23473;BME280;11909;52.516;13.564;2023-03-03T03:41:09;101667.44;;;-0.12;100.00
23473;BME280;11909;52.516;13.564;2023-03-03T03:43:37;101652.09;;;-0.11;100.00
23473;BME280;11909;52.516;13.564;2023-03-03T03:46:05;101642.50;;;-0.14;100.00
23473;BME280;11909;52.516;13.564;2023-03-03T03:48:34;101642.31;;;-0.12;100.00
23473;BME280;11909;52.516;13.564;2023-03-03T03:51:02;101647.81;;;-0.06;100.00
23473;BME280;11909;52.516;13.564;2023-03-03T03:53:30;101641.56;;;-0.06;100.00
23473;BME280;11909;52.516;13.564;2023-03-03T03:55:58;101645.56;;;-0.02;100.00
23473;BME280;11909;52.516;13.564;2023-03-03T03:58:26;101635.72;;;0.05;100.00
23473;BME280;11909;52.516;13.564;2023-03-03T04:00:53;101635.78;;;-0.03;100.00
23473;BME280;11909;52.516;13.564;2023-03-03T04:03:21;101629.00;;;-0.14;100.00
23473;BME280;11909;52.516;13.564;2023-03-03T04:05:52;101622.78;;;-0.15;100.00
23473;BME280;11909;52.516;13.564;2023-03-03T04:08:20;101618.13;;;-0.06;100.00
23473;BME280;11909;52.516;13.564;2023-03-03T04:10:48;101621.00;;;-0.07;100.00
23473;BME280;11909;52.516;13.564;2023-03-03T04:13:15;101618.13;;;-0.06;100.00
23473;BME280;11909;52.516;13.564;2023-03-03T04:15:43;101616.16;;;-0.12;100.00
23473;BME280;11909;52.516;13.564;2023-03-03T04:18:11;101611.16;;;-0.15;100.00
23473;BME280;11909;52.516;13.564;2023-03-03T04:20:39;101621.13;;;-0.16;100.00
23473;BME280;11909;52.516;13.564;2023-03-03T04:23:08;101618.59;;;-0.17;100.00
23473;BME280;11909;52.516;13.564;2023-03-03T04:25:36;101613.56;;;-0.20;100.00
23473;BME280;11909;52.516;13.564;2023-03-03T04:28:03;101613.41;;;-0.19;100.00
23473;BME280;11909;52.516;13.564;2023-03-03T04:30:32;101611.34;;;-0.17;100.00
23473;BME280;11909;52.516;13.564;2023-03-03T04:32:59;101614.88;;;-0.16;100.00
23473;BME280;11909;52.516;13.564;2023-03-03T04:35:27;101615.91;;;-0.32;100.00
23473;BME280;11909;52.516;13.564;2023-03-03T04:37:55;101615.25;;;-0.34;100.00
23473;BME280;11909;52.516;13.564;2023-03-03T04:40:24;101610.88;;;-0.35;100.00
23473;BME280;11909;52.516;13.564;2023-03-03T04:42:51;101604.47;;;-0.34;100.00
23473;BME280;11909;52.516;13.564;2023-03-03T04:45:19;101614.72;;;-0.45;100.00
23473;BME280;11909;52.516;13.564;2023-03-03T04:47:47;101614.22;;;-0.48;100.00
23473;BME280;11909;52.516;13.564;2023-03-03T04:50:14;101609.75;;;-0.56;100.00
23473;BME280;11909;52.516;13.564;2023-03-03T04:52:42;101605.22;;;-0.55;100.00
23473;BME280;11909;52.516;13.564;2023-03-03T04:55:10;101609.75;;;-0.56;100.00
23473;BME280;11909;52.516;13.564;2023-03-03T04:57:39;101613.09;;;-0.54;100.00
23473;BME280;11909;52.516;13.564;2023-03-03T05:00:08;101617.03;;;-0.56;100.00
23473;BME280;11909;52.516;13.564;2023-03-03T05:02:35;101597.94;;;-0.55;100.00
23473;BME280;11909;52.516;13.564;2023-03-03T05:05:04;101609.97;;;-0.57;100.00
23473;BME280;11909;52.516;13.564;2023-03-03T05:07:32;101604.47;;;-0.64;100.00
23473;BME280;11909;52.516;13.564;2023-03-03T05:09:59;101609.09;;;-0.58;100.00
23473;BME280;11909;52.516;13.564;2023-03-03T05:12:27;101607.06;;;-0.56;100.00
23473;BME280;11909;52.516;13.564;2023-03-03T05:14:56;101603.72;;;-0.58;100.00
23473;BME280;11909;52.516;13.564;2023-03-03T05:17:24;101595.25;;;-0.55;100.00
23473;BME280;11909;52.516;13.564;2023-03-03T05:19:51;101597.28;;;-0.57;100.00
23473;BME280;11909;52.516;13.564;2023-03-03T05:22:19;101603.53;;;-0.56;100.00
23473;BME280;11909;52.516;13.564;2023-03-03T05:24:47;101599.50;;;-0.61;100.00
23473;BME280;11909;52.516;13.564;2023-03-03T05:27:15;101603.72;;;-0.58;100.00
23473;BME280;11909;52.516;13.564;2023-03-03T05:29:43;101600.84;;;-0.56;100.00
23473;BME280;11909;52.516;13.564;2023-03-03T05:32:12;101609.09;;;-0.58;100.00
23473;BME280;11909;52.516;13.564;2023-03-03T05:34:39;101617.09;;;-0.65;100.00
23473;BME280;11909;52.516;13.564;2023-03-03T05:37:07;101618.31;;;-0.67;100.00
23473;BME280;11909;52.516;13.564;2023-03-03T05:39:35;101627.47;;;-0.77;100.00
23473;BME280;11909;52.516;13.564;2023-03-03T05:42:03;101630.91;;;-0.83;100.00
23473;BME280;11909;52.516;13.564;2023-03-03T05:44:31;101640.50;;;-0.80;100.00
23473;BME280;11909;52.516;13.564;2023-03-03T05:46:59;101640.38;;;-0.87;100.00
23473;BME280;11909;52.516;13.564;2023-03-03T05:49:28;101649.13;;;-0.85;100.00
23473;BME280;11909;52.516;13.564;2023-03-03T05:51:55;101648.59;;;-0.80;100.00
23473;BME280;11909;52.516;13.564;2023-03-03T05:54:24;101641.69;;;-0.83;100.00
23473;BME280;11909;52.516;13.564;2023-03-03T05:56:52;101644.28;;;-0.90;100.00
23473;BME280;11909;52.516;13.564;2023-03-03T05:59:19;101649.38;;;-0.95;100.00
23473;BME280;11909;52.516;13.564;2023-03-03T06:01:47;101648.00;;;-0.91;100.00
23473;BME280;11909;52.516;13.564;2023-03-03T06:04:15;101640.44;;;-0.95;100.00
23473;BME280;11909;52.516;13.564;2023-03-03T06:06:44;101644.00;;;-0.95;100.00
23473;BME280;11909;52.516;13.564;2023-03-03T06:09:12;101638.22;;;-0.92;100.00
23473;BME280;11909;52.516;13.564;2023-03-03T06:11:40;101640.50;;;-0.80;100.00
23473;BME280;11909;52.516;13.564;2023-03-03T06:14:07;101634.25;;;-0.81;100.00
23473;BME280;11909;52.516;13.564;2023-03-03T06:16:35;101627.75;;;-0.72;100.00
23473;BME280;11909;52.516;13.564;2023-03-03T06:19:03;101637.44;;;-0.77;100.00
23473;BME280;11909;52.516;13.564;2023-03-03T06:21:31;101648.03;;;-0.76;100.00
23473;BME280;11909;52.516;13.564;2023-03-03T06:24:00;101650.72;;;-0.76;100.00
23473;BME280;11909;52.516;13.564;2023-03-03T06:26:27;101655.38;;;-0.69;100.00
23473;BME280;11909;52.516;13.564;2023-03-03T06:28:55;101652.28;;;-0.81;100.00
23473;BME280;11909;52.516;13.564;2023-03-03T06:31:23;101659.09;;;-0.70;100.00
23473;BME280;11909;52.516;13.564;2023-03-03T06:33:51;101657.63;;;-0.73;100.00
23473;BME280;11909;52.516;13.564;2023-03-03T06:36:19;101653.41;;;-0.76;100.00
23473;BME280;11909;52.516;13.564;2023-03-03T06:38:47;101659.47;;;-0.74;100.00
23473;BME280;11909;52.516;13.564;2023-03-03T06:41:16;101658.91;;;-0.69;100.00
23473;BME280;11909;52.516;13.564;2023-03-03T06:43:44;101659.94;;;-0.70;100.00
23473;BME280;11909;52.516;13.564;2023-03-03T06:46:12;101665.72;;;-0.73;100.00
23473;BME280;11909;52.516;13.564;2023-03-03T06:48:40;101662.47;;;-0.68;100.00
23473;BME280;11909;52.516;13.564;2023-03-03T06:51:21;101672.56;;;-0.70;100.00
23473;BME280;11909;52.516;13.564;2023-03-03T06:53:51;101674.63;;;-0.73;100.00
23473;BME280;11909;52.516;13.564;2023-03-03T06:56:22;101673.03;;;-0.82;100.00
23473;BME280;11909;52.516;13.564;2023-03-03T06:58:53;101675.72;;;-0.82;100.00
23473;BME280;11909;52.516;13.564;2023-03-03T07:01:20;101684.03;;;-0.92;100.00
23473;BME280;11909;52.516;13.564;2023-03-03T07:03:48;101687.59;;;-0.91;100.00
23473;BME280;11909;52.516;13.564;2023-03-03T07:06:20;101692.31;;;-0.93;100.00
23473;BME280;11909;52.516;13.564;2023-03-03T07:08:50;101689.97;;;-0.96;100.00
23473;BME280;11909;52.516;13.564;2023-03-03T07:11:20;101693.81;;;-0.91;100.00
23473;BME280;11909;52.516;13.564;2023-03-03T07:13:50;101697.34;;;-0.90;100.00
23473;BME280;11909;52.516;13.564;2023-03-03T07:16:23;101697.22;;;-0.97;100.00
23473;BME280;11909;52.516;13.564;2023-03-03T07:18:53;101697.88;;;-0.95;100.00
23473;BME280;11909;52.516;13.564;2023-03-03T07:21:24;101701.06;;;-0.91;100.00
23473;BME280;11909;52.516;13.564;2023-03-03T07:23:53;101699.84;;;-0.89;100.00
23473;BME280;11909;52.516;13.564;2023-03-03T07:26:24;101699.13;;;-0.82;100.00
23473;BME280;11909;52.516;13.564;2023-03-03T07:28:57;101700.25;;;-0.77;100.00
23473;BME280;11909;52.516;13.564;2023-03-03T07:31:29;101705.13;;;-0.72;100.00
23473;BME280;11909;52.516;13.564;2023-03-03T07:33:59;101702.91;;;-0.68;100.00
23473;BME280;11909;52.516;13.564;2023-03-03T07:36:28;101703.72;;;-0.68;100.00
23473;BME280;11909;52.516;13.564;2023-03-03T07:38:58;101717.13;;;-0.60;100.00
23473;BME280;11909;52.516;13.564;2023-03-03T07:41:28;101721.94;;;-0.70;100.00
23473;BME280;11909;52.516;13.564;2023-03-03T07:44:03;101715.25;;;-0.74;100.00
23473;BME280;11909;52.516;13.564;2023-03-03T07:46:36;101719.63;;;-0.73;100.00
23473;BME280;11909;52.516;13.564;2023-03-03T07:49:19;101731.22;;;-0.73;100.00
23473;BME280;11909;52.516;13.564;2023-03-03T07:51:52;101732.84;;;-0.87;100.00
23473;BME280;11909;52.516;13.564;2023-03-03T07:54:28;101732.06;;;-0.95;100.00
23473;BME280;11909;52.516;13.564;2023-03-03T07:56:58;101719.44;;;-0.95;100.00
23473;BME280;11909;52.516;13.564;2023-03-03T07:59:34;101724.09;;;-0.89;100.00
23473;BME280;11909;52.516;13.564;2023-03-03T08:02:18;101715.91;;;-0.95;100.00
23473;BME280;11909;52.516;13.564;2023-03-03T08:04:56;101714.06;;;-0.95;100.00
23473;BME280;11909;52.516;13.564;2023-03-03T08:07:24;101719.94;;;-0.91;100.00
23473;BME280;11909;52.516;13.564;2023-03-03T08:09:55;101723.56;;;-0.84;100.00
23473;BME280;11909;52.516;13.564;2023-03-03T08:12:34;101720.22;;;-0.86;100.00
23473;BME280;11909;52.516;13.564;2023-03-03T08:15:27;101717.34;;;-0.84;100.00
23473;BME280;11909;52.516;13.564;2023-03-03T08:18:00;101709.91;;;-0.82;100.00
23473;BME280;11909;52.516;13.564;2023-03-03T08:20:42;101707.56;;;-0.85;100.00
23473;BME280;11909;52.516;13.564;2023-03-03T08:23:11;101716.63;;;-0.78;100.00
23473;BME280;11909;52.516;13.564;2023-03-03T08:25:38;101703.63;;;-0.75;100.00
23473;BME280;11909;52.516;13.564;2023-03-03T08:28:08;101720.44;;;-0.73;100.00
23473;BME280;11909;52.516;13.564;2023-03-03T08:30:37;101715.38;;;-0.67;100.00
23473;BME280;11909;52.516;13.564;2023-03-03T08:33:05;101719.91;;;-0.68;100.00
23473;BME280;11909;52.516;13.564;2023-03-03T08:35:33;101719.53;;;-0.65;100.00
23473;BME280;11909;52.516;13.564;2023-03-03T08:38:01;101720.31;;;-0.56;100.00
23473;BME280;11909;52.516;13.564;2023-03-03T08:40:29;101721.69;;;-0.60;100.00
23473;BME280;11909;52.516;13.564;2023-03-03T08:42:57;101728.47;;;-0.64;100.00
23473;BME280;11909;52.516;13.564;2023-03-03T08:45:25;101728.59;;;-0.57;100.00
23473;BME280;11909;52.516;13.564;2023-03-03T08:47:55;101725.06;;;-0.58;100.00
23473;BME280;11909;52.516;13.564;2023-03-03T08:50:23;101723.38;;;-0.59;100.00
23473;BME280;11909;52.516;13.564;2023-03-03T08:52:50;101732.84;;;-0.63;100.00
23473;BME280;11909;52.516;13.564;2023-03-03T08:55:18;101726.81;;;-0.65;100.00
23473;BME280;11909;52.516;13.564;2023-03-03T08:57:46;101730.81;;;-0.61;100.00
23473;BME280;11909;52.516;13.564;2023-03-03T09:00:16;101729.91;;;-0.53;100.00
23473;BME280;11909;52.516;13.564;2023-03-03T09:02:43;101724.81;;;-0.48;100.00
23473;BME280;11909;52.516;13.564;2023-03-03T09:05:13;101716.22;;;-0.52;100.00
23473;BME280;11909;52.516;13.564;2023-03-03T09:07:41;101714.38;;;-0.51;100.00
23473;BME280;11909;52.516;13.564;2023-03-03T09:10:14;101717.25;;;-0.53;100.00
23473;BME280;11909;52.516;13.564;2023-03-03T09:12:43;101714.19;;;-0.50;100.00
23473;BME280;11909;52.516;13.564;2023-03-03T09:15:18;101723.94;;;-0.49;100.00
23473;BME280;11909;52.516;13.564;2023-03-03T09:17:47;101715.41;;;-0.52;100.00
23473;BME280;11909;52.516;13.564;2023-03-03T09:20:34;101720.59;;;-0.51;100.00
23473;BME280;11909;52.516;13.564;2023-03-03T09:23:28;101709.19;;;-0.38;100.00
23473;BME280;11909;52.516;13.564;2023-03-03T09:26:16;101713.22;;;-0.34;100.00
23473;BME280;11909;52.516;13.564;2023-03-03T09:28:48;101712.00;;;-0.31;100.00
23473;BME280;11909;52.516;13.564;2023-03-03T09:31:23;101712.00;;;-0.16;100.00
23473;BME280;11909;52.516;13.564;2023-03-03T09:33:52;101720.84;;;-0.07;100.00
23473;BME280;11909;52.516;13.564;2023-03-03T09:36:26;101720.19;;;-0.09;100.00
23473;BME280;11909;52.516;13.564;2023-03-03T09:38:55;101715.28;;;-0.06;100.00
23473;BME280;11909;52.516;13.564;2023-03-03T09:41:43;101720.94;;;-0.01;100.00
23473;BME280;11909;52.516;13.564;2023-03-03T09:44:29;101728.03;;;0.16;100.00
23473;BME280;11909;52.516;13.564;2023-03-03T09:47:17;101728.22;;;0.14;100.00
23473;BME280;11909;52.516;13.564;2023-03-03T09:49:57;101730.06;;;0.13;100.00
23473;BME280;11909;52.516;13.564;2023-03-03T09:52:38;101730.28;;;0.12;99.93
23473;BME280;11909;52.516;13.564;2023-03-03T09:55:19;101725.69;;;0.27;99.61
23473;BME280;11909;52.516;13.564;2023-03-03T09:58:03;101722.63;;;0.16;99.44
23473;BME280;11909;52.516;13.564;2023-03-03T10:00:49;101719.09;;;0.15;100.00
23473;BME280;11909;52.516;13.564;2023-03-03T10:03:46;101718.53;;;0.20;100.00
23473;BME280;11909;52.516;13.564;2023-03-03T10:06:21;101720.13;;;0.29;100.00
23473;BME280;11909;52.516;13.564;2023-03-03T10:09:14;101716.47;;;0.37;99.59
23473;BME280;11909;52.516;13.564;2023-03-03T10:11:56;101725.59;;;0.51;99.23
23473;BME280;11909;52.516;13.564;2023-03-03T10:14:51;101733.09;;;0.55;98.02
23473;BME280;11909;52.516;13.564;2023-03-03T10:17:31;101727.25;;;0.52;99.04
23473;BME280;11909;52.516;13.564;2023-03-03T10:20:22;101728.06;;;0.52;98.52
23473;BME280;11909;52.516;13.564;2023-03-03T10:22:53;101731.97;;;0.65;98.28
23473;BME280;11909;52.516;13.564;2023-03-03T10:25:28;101728.63;;;0.63;98.10
23473;BME280;11909;52.516;13.564;2023-03-03T10:28:28;101711.03;;;0.52;98.18
23473;BME280;11909;52.516;13.564;2023-03-03T10:31:07;101717.91;;;0.54;98.39
23473;BME280;11909;52.516;13.564;2023-03-03T10:33:49;101721.09;;;0.58;98.21
23473;BME280;11909;52.516;13.564;2023-03-03T10:36:28;101725.28;;;0.61;98.69
23473;BME280;11909;52.516;13.564;2023-03-03T10:39:16;101724.44;;;0.60;98.80
23473;BME280;11909;52.516;13.564;2023-03-03T10:41:59;101722.50;;;0.54;99.10
23473;BME280;11909;52.516;13.564;2023-03-03T10:44:49;101725.06;;;0.62;100.00
23473;BME280;11909;52.516;13.564;2023-03-03T10:47:33;101732.25;;;0.70;100.00
23473;BME280;11909;52.516;13.564;2023-03-03T10:50:13;101735.19;;;0.75;99.32
23473;BME280;11909;52.516;13.564;2023-03-03T10:52:45;101732.75;;;0.80;99.53
23473;BME280;11909;52.516;13.564;2023-03-03T10:55:25;101734.47;;;0.81;99.33
23473;BME280;11909;52.516;13.564;2023-03-03T10:58:05;101728.94;;;0.90;99.74
23473;BME280;11909;52.516;13.564;2023-03-03T11:00:41;101732.75;;;0.95;97.55
23473;BME280;11909;52.516;13.564;2023-03-03T11:06:21;101731.31;;;0.99;96.88
23473;BME280;11909;52.516;13.564;2023-03-03T11:08:53;101724.16;;;0.92;98.05
23473;BME280;11909;52.516;13.564;2023-03-03T11:11:30;101715.28;;;0.98;98.84
23473;BME280;11909;52.516;13.564;2023-03-03T11:14:07;101726.25;;;1.11;97.32
23473;BME280;11909;52.516;13.564;2023-03-03T11:16:44;101716.38;;;1.04;97.62
23473;BME280;11909;52.516;13.564;2023-03-03T11:19:36;101722.91;;;1.09;97.85
23473;BME280;11909;52.516;13.564;2023-03-03T11:22:19;101724.63;;;1.17;98.24
23473;BME280;11909;52.516;13.564;2023-03-03T11:24:58;101719.91;;;1.26;97.04
23473;BME280;11909;52.516;13.564;2023-03-03T11:30:41;101727.66;;;1.29;96.97
23473;BME280;11909;52.516;13.564;2023-03-03T11:33:14;101723.78;;;1.38;96.81
23473;BME280;11909;52.516;13.564;2023-03-03T11:35:50;101723.84;;;1.45;96.95
23473;BME280;11909;52.516;13.564;2023-03-03T11:38:33;101722.59;;;1.48;94.97
23473;BME280;11909;52.516;13.564;2023-03-03T11:41:12;101728.59;;;1.65;93.84
23473;BME280;11909;52.516;13.564;2023-03-03T11:43:45;101727.63;;;1.51;94.49
23473;BME280;11909;52.516;13.564;2023-03-03T11:46:18;101715.47;;;1.40;95.18
23473;BME280;11909;52.516;13.564;2023-03-03T11:48:52;101709.41;;;1.38;95.12
23473;BME280;11909;52.516;13.564;2023-03-03T11:51:32;101705.25;;;1.35;96.08
23473;BME280;11909;52.516;13.564;2023-03-03T11:54:04;101710.31;;;1.45;96.31
23473;BME280;11909;52.516;13.564;2023-03-03T11:56:39;101710.41;;;1.58;95.69
23473;BME280;11909;52.516;13.564;2023-03-03T11:59:29;101712.63;;;1.77;94.37
23473;BME280;11909;52.516;13.564;2023-03-03T12:02:14;101700.91;;;1.69;93.57
23473;BME280;11909;52.516;13.564;2023-03-03T12:04:53;101696.50;;;1.62;93.81
23473;BME280;11909;52.516;13.564;2023-03-03T12:07:30;101688.28;;;1.77;94.13
23473;BME280;11909;52.516;13.564;2023-03-03T12:10:13;101689.44;;;1.67;94.79
23473;BME280;11909;52.516;13.564;2023-03-03T12:12:49;101680.56;;;1.74;95.34
23473;BME280;11909;52.516;13.564;2023-03-03T12:15:26;101679.88;;;1.71;95.58
23473;BME280;11909;52.516;13.564;2023-03-03T12:18:09;101670.75;;;1.72;94.50
23473;BME280;11909;52.516;13.564;2023-03-03T12:20:46;101664.59;;;1.85;94.64
23473;BME280;11909;52.516;13.564;2023-03-03T12:23:30;101665.59;;;1.84;95.32
23473;BME280;11909;52.516;13.564;2023-03-03T12:26:06;101659.19;;;1.85;95.23
23473;BME280;11909;52.516;13.564;2023-03-03T12:28:41;101648.81;;;1.96;95.25
23473;BME280;11909;52.516;13.564;2023-03-03T12:31:23;101649.00;;;1.94;95.86
23473;BME280;11909;52.516;13.564;2023-03-03T12:34:02;101651.75;;;2.01;95.70
23473;BME280;11909;52.516;13.564;2023-03-03T12:36:44;101644.53;;;2.15;95.48
23473;BME280;11909;52.516;13.564;2023-03-03T12:39:23;101648.44;;;2.06;95.01
23473;BME280;11909;52.516;13.564;2023-03-03T12:42:07;101663.06;;;2.18;94.20
23473;BME280;11909;52.516;13.564;2023-03-03T12:44:43;101652.88;;;2.13;93.40
23473;BME280;11909;52.516;13.564;2023-03-03T12:47:15;101653.69;;;2.14;92.53
23473;BME280;11909;52.516;13.564;2023-03-03T12:49:59;101651.97;;;2.06;94.64
23473;BME280;11909;52.516;13.564;2023-03-03T12:52:42;101638.69;;;2.11;95.18
23473;BME280;11909;52.516;13.564;2023-03-03T12:55:19;101639.50;;;2.12;94.55
23473;BME280;11909;52.516;13.564;2023-03-03T12:57:57;101636.63;;;2.13;95.02
23473;BME280;11909;52.516;13.564;2023-03-03T13:00:42;101642.63;;;2.09;94.49
23473;BME280;11909;52.516;13.564;2023-03-03T13:03:34;101644.56;;;2.22;93.07
23473;BME280;11909;52.516;13.564;2023-03-03T13:06:27;101624.72;;;2.08;94.31
23473;BME280;11909;52.516;13.564;2023-03-03T13:09:08;101627.44;;;2.14;94.51